sensor_id;sensor_type;location;lat;lon;timestamp;P1;durP1;ratioP1;P2;durP2;ratioP2
30519;SDS011;17300;50.374;8.006;2023-02-07T00:00:40;2.73;;;1.97;;
30519;SDS011;17300;50.374;8.006;2023-02-07T00:03:06;2.20;;;2.00;;
30519;SDS011;17300;50.374;8.006;2023-02-07T00:05:33;2.10;;;1.90;;
30519;SDS011;17300;50.374;8.006;2023-02-07T00:08:01;2.20;;;1.77;;
30519;SDS011;17300;50.374;8.006;2023-02-07T00:10:28;1.77;;;1.60;;
30519;SDS011;17300;50.374;8.006;2023-02-07T00:12:55;2.40;;;1.83;;
30519;SDS011;17300;50.374;8.006;2023-02-07T00:15:23;1.90;;;1.60;;
30519;SDS011;17300;50.374;8.006;2023-02-07T00:17:49;1.70;;;1.60;;
30519;SDS011;17300;50.374;8.006;2023-02-07T00:20:16;1.80;;;1.70;;
30519;SDS011;17300;50.374;8.006;2023-02-07T00:22:43;1.50;;;1.40;;
30519;SDS011;17300;50.374;8.006;2023-02-07T00:25:10;2.70;;;1.77;;
30519;SDS011;17300;50.374;8.006;2023-02-07T00:27:37;1.70;;;1.60;;
30519;SDS011;17300;50.374;8.006;2023-02-07T00:30:04;1.53;;;1.43;;
30519;SDS011;17300;50.374;8.006;2023-02-07T00:32:33;1.60;;;1.50;;
30519;SDS011;17300;50.374;8.006;2023-02-07T00:35:00;1.43;;;1.30;;
30519;SDS011;17300;50.374;8.006;2023-02-07T00:37:27;1.70;;;1.40;;
30519;SDS011;17300;50.374;8.006;2023-02-07T00:39:53;1.20;;;1.10;;
30519;SDS011;17300;50.374;8.006;2023-02-07T00:42:20;1.00;;;1.00;;
30519;SDS011;17300;50.374;8.006;2023-02-07T00:44:47;1.87;;;1.03;;
30519;SDS011;17300;50.374;8.006;2023-02-07T00:47:13;1.40;;;1.07;;
30519;SDS011;17300;50.374;8.006;2023-02-07T00:49:41;1.07;;;1.07;;
30519;SDS011;17300;50.374;8.006;2023-02-07T00:52:08;1.53;;;1.10;;
30519;SDS011;17300;50.374;8.006;2023-02-07T00:54:35;1.40;;;1.00;;
30519;SDS011;17300;50.374;8.006;2023-02-07T00:57:01;1.00;;;0.90;;
30519;SDS011;17300;50.374;8.006;2023-02-07T00:59:28;0.70;;;0.70;;
30519;SDS011;17300;50.374;8.006;2023-02-07T01:01:54;0.90;;;0.90;;
30519;SDS011;17300;50.374;8.006;2023-02-07T01:04:21;0.90;;;0.90;;
30519;SDS011;17300;50.374;8.006;2023-02-07T01:06:49;1.23;;;1.00;;
30519;SDS011;17300;50.374;8.006;2023-02-07T01:09:16;0.70;;;0.70;;
30519;SDS011;17300;50.374;8.006;2023-02-07T01:11:42;0.80;;;0.80;;
30519;SDS011;17300;50.374;8.006;2023-02-07T01:14:09;0.83;;;0.80;;
30519;SDS011;17300;50.374;8.006;2023-02-07T01:16:36;0.80;;;0.80;;
30519;SDS011;17300;50.374;8.006;2023-02-07T01:19:03;0.70;;;0.70;;
30519;SDS011;17300;50.374;8.006;2023-02-07T01:21:30;0.80;;;0.80;;
30519;SDS011;17300;50.374;8.006;2023-02-07T01:23:58;0.93;;;0.90;;
30519;SDS011;17300;50.374;8.006;2023-02-07T01:26:25;0.80;;;0.80;;
30519;SDS011;17300;50.374;8.006;2023-02-07T01:28:52;0.80;;;0.80;;
30519;SDS011;17300;50.374;8.006;2023-02-07T01:31:19;0.60;;;0.60;;
30519;SDS011;17300;50.374;8.006;2023-02-07T01:33:47;1.23;;;0.90;;
30519;SDS011;17300;50.374;8.006;2023-02-07T01:36:17;0.97;;;0.97;;
30519;SDS011;17300;50.374;8.006;2023-02-07T01:38:44;0.60;;;0.60;;
30519;SDS011;17300;50.374;8.006;2023-02-07T01:41:12;1.33;;;0.70;;
30519;SDS011;17300;50.374;8.006;2023-02-07T01:43:52;0.70;;;0.60;;
30519;SDS011;17300;50.374;8.006;2023-02-07T01:46:23;0.70;;;0.70;;
30519;SDS011;17300;50.374;8.006;2023-02-07T01:48:50;0.80;;;0.80;;
30519;SDS011;17300;50.374;8.006;2023-02-07T01:51:19;0.77;;;0.77;;
30519;SDS011;17300;50.374;8.006;2023-02-07T01:53:47;1.03;;;0.93;;
30519;SDS011;17300;50.374;8.006;2023-02-07T01:56:15;1.03;;;0.90;;
30519;SDS011;17300;50.374;8.006;2023-02-07T01:58:42;1.00;;;0.90;;
30519;SDS011;17300;50.374;8.006;2023-02-07T02:01:12;0.90;;;0.90;;
30519;SDS011;17300;50.374;8.006;2023-02-07T02:03:43;0.90;;;0.90;;
30519;SDS011;17300;50.374;8.006;2023-02-07T02:06:17;0.80;;;0.80;;
30519;SDS011;17300;50.374;8.006;2023-02-07T02:08:46;0.77;;;0.77;;
30519;SDS011;17300;50.374;8.006;2023-02-07T02:11:24;1.47;;;0.80;;
30519;SDS011;17300;50.374;8.006;2023-02-07T02:14:03;1.53;;;0.90;;
30519;SDS011;17300;50.374;8.006;2023-02-07T02:16:39;0.97;;;0.73;;
30519;SDS011;17300;50.374;8.006;2023-02-07T02:19:22;1.10;;;1.00;;
30519;SDS011;17300;50.374;8.006;2023-02-07T02:22:18;0.80;;;0.80;;
30519;SDS011;17300;50.374;8.006;2023-02-07T02:25:05;1.30;;;1.00;;
30519;SDS011;17300;50.374;8.006;2023-02-07T02:28:12;0.80;;;0.80;;
30519;SDS011;17300;50.374;8.006;2023-02-07T02:31:11;0.93;;;0.90;;
30519;SDS011;17300;50.374;8.006;2023-02-07T02:34:11;0.83;;;0.83;;
30519;SDS011;17300;50.374;8.006;2023-02-07T02:36:44;0.97;;;0.90;;
30519;SDS011;17300;50.374;8.006;2023-02-07T02:39:18;0.70;;;0.70;;
30519;SDS011;17300;50.374;8.006;2023-02-07T02:41:49;0.90;;;0.90;;
30519;SDS011;17300;50.374;8.006;2023-02-07T02:44:24;1.30;;;0.93;;
30519;SDS011;17300;50.374;8.006;2023-02-07T02:46:55;1.07;;;0.90;;
30519;SDS011;17300;50.374;8.006;2023-02-07T02:49:26;0.87;;;0.87;;
30519;SDS011;17300;50.374;8.006;2023-02-07T02:51:54;1.10;;;1.00;;
30519;SDS011;17300;50.374;8.006;2023-02-07T02:54:25;0.93;;;0.93;;
30519;SDS011;17300;50.374;8.006;2023-02-07T02:56:57;0.80;;;0.80;;
30519;SDS011;17300;50.374;8.006;2023-02-07T02:59:47;0.80;;;0.80;;
30519;SDS011;17300;50.374;8.006;2023-02-07T03:02:37;1.63;;;0.80;;
30519;SDS011;17300;50.374;8.006;2023-02-07T03:05:14;0.80;;;0.80;;
30519;SDS011;17300;50.374;8.006;2023-02-07T03:07:53;0.90;;;0.90;;
30519;SDS011;17300;50.374;8.006;2023-02-07T03:10:28;1.07;;;0.97;;
30519;SDS011;17300;50.374;8.006;2023-02-07T03:13:02;0.77;;;0.77;;
30519;SDS011;17300;50.374;8.006;2023-02-07T03:15:43;1.20;;;1.10;;
30519;SDS011;17300;50.374;8.006;2023-02-07T03:18:16;0.80;;;0.80;;
30519;SDS011;17300;50.374;8.006;2023-02-07T03:20:45;1.07;;;1.00;;
30519;SDS011;17300;50.374;8.006;2023-02-07T03:23:17;0.70;;;0.70;;
30519;SDS011;17300;50.374;8.006;2023-02-07T03:25:46;0.80;;;0.80;;
30519;SDS011;17300;50.374;8.006;2023-02-07T03:28:14;0.70;;;0.70;;
30519;SDS011;17300;50.374;8.006;2023-02-07T03:30:43;1.20;;;1.10;;
30519;SDS011;17300;50.374;8.006;2023-02-07T03:33:12;0.83;;;0.83;;
30519;SDS011;17300;50.374;8.006;2023-02-07T03:35:41;1.00;;;0.93;;
30519;SDS011;17300;50.374;8.006;2023-02-07T03:38:14;0.93;;;0.90;;
30519;SDS011;17300;50.374;8.006;2023-02-07T03:40:41;1.10;;;0.93;;
30519;SDS011;17300;50.374;8.006;2023-02-07T03:43:12;0.90;;;0.90;;
30519;SDS011;17300;50.374;8.006;2023-02-07T03:45:41;1.30;;;1.00;;
30519;SDS011;17300;50.374;8.006;2023-02-07T03:48:08;1.00;;;0.97;;
30519;SDS011;17300;50.374;8.006;2023-02-07T03:50:35;0.90;;;0.90;;
30519;SDS011;17300;50.374;8.006;2023-02-07T03:53:03;0.80;;;0.80;;
30519;SDS011;17300;50.374;8.006;2023-02-07T03:55:30;1.03;;;1.03;;
30519;SDS011;17300;50.374;8.006;2023-02-07T03:57:57;0.93;;;0.90;;
30519;SDS011;17300;50.374;8.006;2023-02-07T04:00:24;1.20;;;1.10;;
30519;SDS011;17300;50.374;8.006;2023-02-07T04:02:50;2.17;;;1.07;;
30519;SDS011;17300;50.374;8.006;2023-02-07T04:05:17;1.13;;;1.10;;
30519;SDS011;17300;50.374;8.006;2023-02-07T04:07:44;1.23;;;1.13;;
30519;SDS011;17300;50.374;8.006;2023-02-07T04:10:12;1.20;;;1.10;;
30519;SDS011;17300;50.374;8.006;2023-02-07T04:12:38;1.37;;;1.23;;
30519;SDS011;17300;50.374;8.006;2023-02-07T04:15:06;1.20;;;1.13;;
30519;SDS011;17300;50.374;8.006;2023-02-07T04:17:33;1.30;;;1.20;;
30519;SDS011;17300;50.374;8.006;2023-02-07T04:20:00;1.07;;;1.00;;
30519;SDS011;17300;50.374;8.006;2023-02-07T04:22:27;1.20;;;1.10;;
30519;SDS011;17300;50.374;8.006;2023-02-07T04:24:53;1.20;;;1.00;;
30519;SDS011;17300;50.374;8.006;2023-02-07T04:27:22;1.40;;;1.30;;
30519;SDS011;17300;50.374;8.006;2023-02-07T04:29:49;1.87;;;1.10;;
30519;SDS011;17300;50.374;8.006;2023-02-07T04:32:16;1.13;;;1.03;;
30519;SDS011;17300;50.374;8.006;2023-02-07T04:34:43;1.67;;;1.30;;
30519;SDS011;17300;50.374;8.006;2023-02-07T04:37:09;1.23;;;1.13;;
30519;SDS011;17300;50.374;8.006;2023-02-07T04:39:36;1.23;;;1.10;;
30519;SDS011;17300;50.374;8.006;2023-02-07T04:42:03;1.27;;;1.17;;
30519;SDS011;17300;50.374;8.006;2023-02-07T04:44:32;1.30;;;1.20;;
30519;SDS011;17300;50.374;8.006;2023-02-07T04:46:59;1.20;;;1.10;;
30519;SDS011;17300;50.374;8.006;2023-02-07T04:49:26;1.20;;;1.10;;
30519;SDS011;17300;50.374;8.006;2023-02-07T04:51:53;1.13;;;1.03;;
30519;SDS011;17300;50.374;8.006;2023-02-07T04:54:19;1.97;;;1.43;;
30519;SDS011;17300;50.374;8.006;2023-02-07T04:59:21;1.33;;;1.23;;
30519;SDS011;17300;50.374;8.006;2023-02-07T05:01:49;1.50;;;1.40;;
30519;SDS011;17300;50.374;8.006;2023-02-07T05:04:16;1.37;;;1.27;;
30519;SDS011;17300;50.374;8.006;2023-02-07T05:10:11;1.60;;;1.50;;
30519;SDS011;17300;50.374;8.006;2023-02-07T05:13:24;1.57;;;1.47;;
30519;SDS011;17300;50.374;8.006;2023-02-07T05:16:23;1.30;;;1.20;;
30519;SDS011;17300;50.374;8.006;2023-02-07T05:18:51;1.63;;;1.53;;
30519;SDS011;17300;50.374;8.006;2023-02-07T05:21:18;1.50;;;1.40;;
30519;SDS011;17300;50.374;8.006;2023-02-07T05:23:45;1.53;;;1.43;;
30519;SDS011;17300;50.374;8.006;2023-02-07T05:26:11;1.63;;;1.47;;
30519;SDS011;17300;50.374;8.006;2023-02-07T05:28:38;1.80;;;1.70;;
30519;SDS011;17300;50.374;8.006;2023-02-07T05:31:05;2.13;;;1.37;;
30519;SDS011;17300;50.374;8.006;2023-02-07T05:33:32;1.50;;;1.40;;
30519;SDS011;17300;50.374;8.006;2023-02-07T05:36:00;1.90;;;1.67;;
30519;SDS011;17300;50.374;8.006;2023-02-07T05:38:27;1.77;;;1.63;;
30519;SDS011;17300;50.374;8.006;2023-02-07T05:40:54;1.60;;;1.50;;
30519;SDS011;17300;50.374;8.006;2023-02-07T05:43:20;1.80;;;1.70;;
30519;SDS011;17300;50.374;8.006;2023-02-07T05:45:47;1.93;;;1.50;;
30519;SDS011;17300;50.374;8.006;2023-02-07T05:48:14;1.87;;;1.70;;
30519;SDS011;17300;50.374;8.006;2023-02-07T05:50:41;2.67;;;1.73;;
30519;SDS011;17300;50.374;8.006;2023-02-07T05:53:09;2.77;;;1.77;;
30519;SDS011;17300;50.374;8.006;2023-02-07T05:55:36;2.50;;;1.80;;
30519;SDS011;17300;50.374;8.006;2023-02-07T05:58:03;1.80;;;1.60;;
30519;SDS011;17300;50.374;8.006;2023-02-07T06:00:30;2.43;;;2.13;;
30519;SDS011;17300;50.374;8.006;2023-02-07T06:02:57;2.07;;;1.87;;
30519;SDS011;17300;50.374;8.006;2023-02-07T06:05:24;2.17;;;1.97;;
30519;SDS011;17300;50.374;8.006;2023-02-07T06:07:55;2.27;;;2.07;;
30519;SDS011;17300;50.374;8.006;2023-02-07T06:10:23;2.87;;;2.60;;
30519;SDS011;17300;50.374;8.006;2023-02-07T06:12:50;3.00;;;2.70;;
30519;SDS011;17300;50.374;8.006;2023-02-07T06:15:17;2.60;;;2.40;;
30519;SDS011;17300;50.374;8.006;2023-02-07T06:17:43;3.60;;;3.30;;
30519;SDS011;17300;50.374;8.006;2023-02-07T06:20:10;3.00;;;2.70;;
30519;SDS011;17300;50.374;8.006;2023-02-07T06:22:37;3.27;;;2.97;;
30519;SDS011;17300;50.374;8.006;2023-02-07T06:25:04;3.50;;;3.20;;
30519;SDS011;17300;50.374;8.006;2023-02-07T06:27:37;3.20;;;3.00;;
30519;SDS011;17300;50.374;8.006;2023-02-07T06:30:04;2.97;;;2.67;;
30519;SDS011;17300;50.374;8.006;2023-02-07T06:32:31;2.50;;;2.30;;
30519;SDS011;17300;50.374;8.006;2023-02-07T06:34:58;2.80;;;2.60;;
30519;SDS011;17300;50.374;8.006;2023-02-07T06:37:25;3.50;;;2.77;;
30519;SDS011;17300;50.374;8.006;2023-02-07T06:39:51;2.30;;;2.10;;
30519;SDS011;17300;50.374;8.006;2023-02-07T06:42:18;2.67;;;2.47;;
30519;SDS011;17300;50.374;8.006;2023-02-07T06:44:46;2.80;;;2.60;;
30519;SDS011;17300;50.374;8.006;2023-02-07T06:47:13;4.07;;;3.67;;
30519;SDS011;17300;50.374;8.006;2023-02-07T06:49:40;4.50;;;3.70;;
30519;SDS011;17300;50.374;8.006;2023-02-07T06:52:07;3.73;;;3.43;;
30519;SDS011;17300;50.374;8.006;2023-02-07T06:54:34;5.30;;;3.60;;
30519;SDS011;17300;50.374;8.006;2023-02-07T06:57:00;3.53;;;3.23;;
30519;SDS011;17300;50.374;8.006;2023-02-07T06:59:27;4.10;;;3.70;;
30519;SDS011;17300;50.374;8.006;2023-02-07T07:01:55;4.10;;;3.70;;
30519;SDS011;17300;50.374;8.006;2023-02-07T07:04:24;4.80;;;3.93;;
30519;SDS011;17300;50.374;8.006;2023-02-07T07:06:51;4.87;;;3.97;;
30519;SDS011;17300;50.374;8.006;2023-02-07T07:09:17;4.43;;;3.97;;
30519;SDS011;17300;50.374;8.006;2023-02-07T07:11:44;4.17;;;3.77;;
30519;SDS011;17300;50.374;8.006;2023-02-07T07:14:14;4.80;;;3.87;;
30519;SDS011;17300;50.374;8.006;2023-02-07T07:19:39;4.30;;;3.90;;
30519;SDS011;17300;50.374;8.006;2023-02-07T07:22:12;4.70;;;4.27;;
30519;SDS011;17300;50.374;8.006;2023-02-07T07:24:53;5.87;;;4.20;;
30519;SDS011;17300;50.374;8.006;2023-02-07T07:27:19;5.23;;;4.10;;
30519;SDS011;17300;50.374;8.006;2023-02-07T07:29:46;5.03;;;3.77;;
30519;SDS011;17300;50.374;8.006;2023-02-07T07:32:14;4.23;;;3.83;;
30519;SDS011;17300;50.374;8.006;2023-02-07T07:34:41;4.50;;;4.00;;
30519;SDS011;17300;50.374;8.006;2023-02-07T07:37:08;5.33;;;3.73;;
30519;SDS011;17300;50.374;8.006;2023-02-07T07:39:36;3.97;;;3.57;;
30519;SDS011;17300;50.374;8.006;2023-02-07T07:42:03;3.97;;;3.57;;
30519;SDS011;17300;50.374;8.006;2023-02-07T07:44:30;4.10;;;3.70;;
30519;SDS011;17300;50.374;8.006;2023-02-07T07:46:56;5.20;;;3.70;;
30519;SDS011;17300;50.374;8.006;2023-02-07T07:49:25;4.03;;;3.43;;
30519;SDS011;17300;50.374;8.006;2023-02-07T07:51:51;3.63;;;3.23;;
30519;SDS011;17300;50.374;8.006;2023-02-07T07:54:18;4.17;;;3.10;;
30519;SDS011;17300;50.374;8.006;2023-02-07T07:56:45;4.20;;;3.77;;
30519;SDS011;17300;50.374;8.006;2023-02-07T07:59:12;4.63;;;3.47;;
30519;SDS011;17300;50.374;8.006;2023-02-07T08:01:38;4.70;;;4.20;;
30519;SDS011;17300;50.374;8.006;2023-02-07T08:04:05;4.27;;;3.87;;
30519;SDS011;17300;50.374;8.006;2023-02-07T08:06:33;4.13;;;3.73;;
30519;SDS011;17300;50.374;8.006;2023-02-07T08:09:00;5.10;;;4.17;;
30519;SDS011;17300;50.374;8.006;2023-02-07T08:11:26;5.00;;;4.50;;
30519;SDS011;17300;50.374;8.006;2023-02-07T08:13:53;4.47;;;4.07;;
30519;SDS011;17300;50.374;8.006;2023-02-07T08:16:20;4.47;;;4.07;;
30519;SDS011;17300;50.374;8.006;2023-02-07T08:18:46;4.60;;;4.20;;
30519;SDS011;17300;50.374;8.006;2023-02-07T08:21:13;5.10;;;4.40;;
30519;SDS011;17300;50.374;8.006;2023-02-07T08:23:41;4.87;;;4.47;;
30519;SDS011;17300;50.374;8.006;2023-02-07T08:26:08;4.97;;;4.47;;
30519;SDS011;17300;50.374;8.006;2023-02-07T08:28:34;4.83;;;4.40;;
30519;SDS011;17300;50.374;8.006;2023-02-07T08:31:02;4.93;;;4.47;;
30519;SDS011;17300;50.374;8.006;2023-02-07T08:33:30;4.63;;;4.23;;
30519;SDS011;17300;50.374;8.006;2023-02-07T08:35:57;4.70;;;4.30;;
30519;SDS011;17300;50.374;8.006;2023-02-07T08:38:24;5.47;;;4.97;;
30519;SDS011;17300;50.374;8.006;2023-02-07T08:40:52;5.03;;;4.63;;
30519;SDS011;17300;50.374;8.006;2023-02-07T08:43:19;5.20;;;4.70;;
30519;SDS011;17300;50.374;8.006;2023-02-07T08:45:46;5.10;;;4.70;;
30519;SDS011;17300;50.374;8.006;2023-02-07T08:48:13;4.93;;;4.53;;
30519;SDS011;17300;50.374;8.006;2023-02-07T08:50:40;5.23;;;4.83;;
30519;SDS011;17300;50.374;8.006;2023-02-07T08:53:07;5.23;;;4.83;;
30519;SDS011;17300;50.374;8.006;2023-02-07T08:55:34;5.83;;;5.03;;
30519;SDS011;17300;50.374;8.006;2023-02-07T08:58:02;6.07;;;5.57;;
30519;SDS011;17300;50.374;8.006;2023-02-07T09:00:28;6.00;;;5.50;;
30519;SDS011;17300;50.374;8.006;2023-02-07T09:02:55;5.47;;;5.07;;
30519;SDS011;17300;50.374;8.006;2023-02-07T09:05:22;5.43;;;5.03;;
30519;SDS011;17300;50.374;8.006;2023-02-07T09:07:49;5.37;;;4.97;;
30519;SDS011;17300;50.374;8.006;2023-02-07T09:10:15;5.67;;;5.27;;
30519;SDS011;17300;50.374;8.006;2023-02-07T09:12:42;5.63;;;5.20;;
30519;SDS011;17300;50.374;8.006;2023-02-07T09:15:10;5.15;;;4.75;;
30519;SDS011;17300;50.374;8.006;2023-02-07T09:17:37;5.68;;;5.18;;
30519;SDS011;17300;50.374;8.006;2023-02-07T09:20:04;5.18;;;4.78;;
30519;SDS011;17300;50.374;8.006;2023-02-07T09:22:31;5.50;;;5.10;;
30519;SDS011;17300;50.374;8.006;2023-02-07T09:25:18;5.47;;;5.07;;
30519;SDS011;17300;50.374;8.006;2023-02-07T09:27:44;5.88;;;5.38;;
30519;SDS011;17300;50.374;8.006;2023-02-07T09:30:12;6.13;;;5.63;;
30519;SDS011;17300;50.374;8.006;2023-02-07T09:32:39;6.22;;;5.72;;
30519;SDS011;17300;50.374;8.006;2023-02-07T09:35:06;5.78;;;5.28;;
30519;SDS011;17300;50.374;8.006;2023-02-07T09:37:33;6.47;;;5.25;;
30519;SDS011;17300;50.374;8.006;2023-02-07T09:40:00;5.55;;;5.10;;
30519;SDS011;17300;50.374;8.006;2023-02-07T09:42:28;6.72;;;6.13;;
30519;SDS011;17300;50.374;8.006;2023-02-07T09:45:03;6.07;;;5.57;;
30519;SDS011;17300;50.374;8.006;2023-02-07T09:47:36;5.80;;;5.30;;
30519;SDS011;17300;50.374;8.006;2023-02-07T09:50:07;5.15;;;4.70;;
30519;SDS011;17300;50.374;8.006;2023-02-07T09:52:38;5.68;;;5.18;;
30519;SDS011;17300;50.374;8.006;2023-02-07T09:55:13;5.40;;;5.00;;
30519;SDS011;17300;50.374;8.006;2023-02-07T09:57:44;5.82;;;5.32;;
30519;SDS011;17300;50.374;8.006;2023-02-07T10:00:18;5.18;;;4.78;;
30519;SDS011;17300;50.374;8.006;2023-02-07T10:02:51;5.05;;;4.65;;
30519;SDS011;17300;50.374;8.006;2023-02-07T10:05:24;5.85;;;5.35;;
30519;SDS011;17300;50.374;8.006;2023-02-07T10:07:54;5.20;;;4.85;;
30519;SDS011;17300;50.374;8.006;2023-02-07T10:10:22;5.15;;;4.75;;
30519;SDS011;17300;50.374;8.006;2023-02-07T10:13:00;5.35;;;4.95;;
30519;SDS011;17300;50.374;8.006;2023-02-07T10:15:57;4.88;;;4.47;;
30519;SDS011;17300;50.374;8.006;2023-02-07T10:18:45;4.90;;;4.57;;
30519;SDS011;17300;50.374;8.006;2023-02-07T10:21:21;4.85;;;4.50;;
30519;SDS011;17300;50.374;8.006;2023-02-07T10:24:03;5.28;;;4.88;;
30519;SDS011;17300;50.374;8.006;2023-02-07T10:26:53;5.65;;;5.20;;
30519;SDS011;17300;50.374;8.006;2023-02-07T10:32:10;4.97;;;4.60;;
30519;SDS011;17300;50.374;8.006;2023-02-07T10:34:43;5.25;;;4.85;;
30519;SDS011;17300;50.374;8.006;2023-02-07T10:37:14;4.90;;;4.50;;
30519;SDS011;17300;50.374;8.006;2023-02-07T10:39:44;5.20;;;4.80;;
30519;SDS011;17300;50.374;8.006;2023-02-07T10:42:16;5.00;;;4.60;;
30519;SDS011;17300;50.374;8.006;2023-02-07T10:44:44;4.88;;;4.43;;
30519;SDS011;17300;50.374;8.006;2023-02-07T10:47:12;5.00;;;4.60;;
30519;SDS011;17300;50.374;8.006;2023-02-07T10:49:43;4.90;;;4.50;;
30519;SDS011;17300;50.374;8.006;2023-02-07T10:52:15;4.78;;;4.45;;
30519;SDS011;17300;50.374;8.006;2023-02-07T10:54:53;4.55;;;4.25;;
30519;SDS011;17300;50.374;8.006;2023-02-07T10:57:21;4.63;;;4.22;;
30519;SDS011;17300;50.374;8.006;2023-02-07T10:59:48;4.93;;;4.55;;
30519;SDS011;17300;50.374;8.006;2023-02-07T11:02:39;4.60;;;4.13;;
30519;SDS011;17300;50.374;8.006;2023-02-07T11:08:05;4.75;;;4.35;;
30519;SDS011;17300;50.374;8.006;2023-02-07T11:10:43;4.60;;;4.30;;
30519;SDS011;17300;50.374;8.006;2023-02-07T11:13:11;4.15;;;3.85;;
30519;SDS011;17300;50.374;8.006;2023-02-07T11:15:44;4.38;;;4.07;;
30519;SDS011;17300;50.374;8.006;2023-02-07T11:18:23;4.28;;;3.97;;
30519;SDS011;17300;50.374;8.006;2023-02-07T11:20:58;4.28;;;3.90;;
30519;SDS011;17300;50.374;8.006;2023-02-07T11:23:25;4.78;;;4.38;;
30519;SDS011;17300;50.374;8.006;2023-02-07T11:25:52;4.78;;;4.40;;
30519;SDS011;17300;50.374;8.006;2023-02-07T11:28:21;4.68;;;4.38;;
30519;SDS011;17300;50.374;8.006;2023-02-07T11:30:51;5.25;;;4.50;;
30519;SDS011;17300;50.374;8.006;2023-02-07T11:33:24;4.88;;;4.47;;
30519;SDS011;17300;50.374;8.006;2023-02-07T11:36:09;4.47;;;4.18;;
30519;SDS011;17300;50.374;8.006;2023-02-07T11:38:38;4.05;;;3.75;;
30519;SDS011;17300;50.374;8.006;2023-02-07T11:41:15;4.20;;;3.90;;
30519;SDS011;17300;50.374;8.006;2023-02-07T11:43:53;4.03;;;3.73;;
30519;SDS011;17300;50.374;8.006;2023-02-07T11:46:22;4.03;;;3.73;;
30519;SDS011;17300;50.374;8.006;2023-02-07T11:49:00;4.20;;;3.80;;
30519;SDS011;17300;50.374;8.006;2023-02-07T11:51:31;4.03;;;3.73;;
30519;SDS011;17300;50.374;8.006;2023-02-07T11:53:59;4.20;;;3.83;;
30519;SDS011;17300;50.374;8.006;2023-02-07T11:56:29;4.20;;;3.90;;
30519;SDS011;17300;50.374;8.006;2023-02-07T11:58:59;3.93;;;3.63;;
30519;SDS011;17300;50.374;8.006;2023-02-07T12:01:30;4.17;;;3.87;;
30519;SDS011;17300;50.374;8.006;2023-02-07T12:03:59;3.97;;;3.57;;
30519;SDS011;17300;50.374;8.006;2023-02-07T12:06:30;4.17;;;3.80;;
30519;SDS011;17300;50.374;8.006;2023-02-07T12:09:04;4.10;;;3.70;;
30519;SDS011;17300;50.374;8.006;2023-02-07T12:11:39;3.90;;;3.20;;
30519;SDS011;17300;50.374;8.006;2023-02-07T12:14:08;3.73;;;3.43;;
30519;SDS011;17300;50.374;8.006;2023-02-07T12:16:43;3.80;;;3.50;;
30519;SDS011;17300;50.374;8.006;2023-02-07T12:19:15;4.10;;;3.70;;
30519;SDS011;17300;50.374;8.006;2023-02-07T12:21:50;3.70;;;3.40;;
30519;SDS011;17300;50.374;8.006;2023-02-07T12:24:22;4.23;;;3.83;;
30519;SDS011;17300;50.374;8.006;2023-02-07T12:26:54;4.10;;;3.70;;
30519;SDS011;17300;50.374;8.006;2023-02-07T12:29:29;4.03;;;3.73;;
30519;SDS011;17300;50.374;8.006;2023-02-07T12:32:04;4.13;;;3.73;;
30519;SDS011;17300;50.374;8.006;2023-02-07T12:34:37;4.73;;;4.33;;
30519;SDS011;17300;50.374;8.006;2023-02-07T12:37:12;4.77;;;4.37;;
30519;SDS011;17300;50.374;8.006;2023-02-07T12:39:47;4.90;;;4.47;;
30519;SDS011;17300;50.374;8.006;2023-02-07T12:42:23;4.50;;;4.10;;
30519;SDS011;17300;50.374;8.006;2023-02-07T12:44:58;4.50;;;4.10;;
30519;SDS011;17300;50.374;8.006;2023-02-07T12:47:32;4.60;;;4.20;;
30519;SDS011;17300;50.374;8.006;2023-02-07T12:50:12;4.73;;;4.33;;
30519;SDS011;17300;50.374;8.006;2023-02-07T12:52:57;4.30;;;4.00;;
30519;SDS011;17300;50.374;8.006;2023-02-07T12:55:36;4.77;;;4.37;;
30519;SDS011;17300;50.374;8.006;2023-02-07T12:58:14;4.97;;;4.47;;
30519;SDS011;17300;50.374;8.006;2023-02-07T13:00:50;4.60;;;4.20;;
30519;SDS011;17300;50.374;8.006;2023-02-07T13:03:24;4.43;;;3.93;;
30519;SDS011;17300;50.374;8.006;2023-02-07T13:06:07;4.60;;;4.13;;
30519;SDS011;17300;50.374;8.006;2023-02-07T13:08:42;4.43;;;4.03;;
30519;SDS011;17300;50.374;8.006;2023-02-07T13:11:20;4.37;;;3.97;;
30519;SDS011;17300;50.374;8.006;2023-02-07T13:13:56;3.80;;;3.50;;
30519;SDS011;17300;50.374;8.006;2023-02-07T13:16:36;4.37;;;3.97;;
30519;SDS011;17300;50.374;8.006;2023-02-07T13:19:10;4.03;;;3.63;;
30519;SDS011;17300;50.374;8.006;2023-02-07T13:21:46;3.63;;;3.27;;
30519;SDS011;17300;50.374;8.006;2023-02-07T13:24:20;4.17;;;3.30;;
30519;SDS011;17300;50.374;8.006;2023-02-07T13:26:51;3.37;;;3.07;;
30519;SDS011;17300;50.374;8.006;2023-02-07T13:29:20;3.27;;;2.87;;
30519;SDS011;17300;50.374;8.006;2023-02-07T13:31:50;3.20;;;2.90;;
30519;SDS011;17300;50.374;8.006;2023-02-07T13:34:21;3.63;;;3.20;;
30519;SDS011;17300;50.374;8.006;2023-02-07T13:36:50;3.50;;;3.20;;
30519;SDS011;17300;50.374;8.006;2023-02-07T13:39:19;3.80;;;3.50;;
30519;SDS011;17300;50.374;8.006;2023-02-07T13:42:06;3.50;;;3.20;;
30519;SDS011;17300;50.374;8.006;2023-02-07T13:44:41;3.40;;;3.10;;
30519;SDS011;17300;50.374;8.006;2023-02-07T13:47:26;4.20;;;3.13;;
30519;SDS011;17300;50.374;8.006;2023-02-07T13:50:10;3.60;;;3.30;;
30519;SDS011;17300;50.374;8.006;2023-02-07T13:52:45;4.40;;;3.20;;
30519;SDS011;17300;50.374;8.006;2023-02-07T13:55:23;3.70;;;3.27;;
30519;SDS011;17300;50.374;8.006;2023-02-07T13:57:55;3.53;;;3.23;;
30519;SDS011;17300;50.374;8.006;2023-02-07T14:00:57;3.67;;;3.37;;
30519;SDS011;17300;50.374;8.006;2023-02-07T14:03:33;4.27;;;3.50;;
30519;SDS011;17300;50.374;8.006;2023-02-07T14:06:13;5.07;;;3.40;;
30519;SDS011;17300;50.374;8.006;2023-02-07T14:08:45;3.97;;;3.57;;
30519;SDS011;17300;50.374;8.006;2023-02-07T14:11:27;3.47;;;3.13;;
30519;SDS011;17300;50.374;8.006;2023-02-07T14:14:10;3.53;;;3.23;;
30519;SDS011;17300;50.374;8.006;2023-02-07T14:16:44;3.47;;;3.03;;
30519;SDS011;17300;50.374;8.006;2023-02-07T14:19:13;3.43;;;3.13;;
30519;SDS011;17300;50.374;8.006;2023-02-07T14:21:42;3.60;;;3.30;;
30519;SDS011;17300;50.374;8.006;2023-02-07T14:24:17;3.43;;;3.10;;
30519;SDS011;17300;50.374;8.006;2023-02-07T14:26:53;3.53;;;3.27;;
30519;SDS011;17300;50.374;8.006;2023-02-07T14:32:25;4.03;;;3.10;;
30519;SDS011;17300;50.374;8.006;2023-02-07T14:34:58;3.27;;;2.97;;
30519;SDS011;17300;50.374;8.006;2023-02-07T14:37:38;3.73;;;3.43;;
30519;SDS011;17300;50.374;8.006;2023-02-07T14:40:07;4.30;;;3.60;;
30519;SDS011;17300;50.374;8.006;2023-02-07T14:42:51;3.60;;;3.30;;
30519;SDS011;17300;50.374;8.006;2023-02-07T14:45:20;4.07;;;3.67;;
30519;SDS011;17300;50.374;8.006;2023-02-07T14:47:48;3.70;;;3.40;;
30519;SDS011;17300;50.374;8.006;2023-02-07T14:50:16;3.77;;;3.40;;
30519;SDS011;17300;50.374;8.006;2023-02-07T14:52:48;4.70;;;4.30;;
30519;SDS011;17300;50.374;8.006;2023-02-07T14:55:16;3.97;;;3.63;;
30519;SDS011;17300;50.374;8.006;2023-02-07T14:57:48;3.80;;;3.50;;
30519;SDS011;17300;50.374;8.006;2023-02-07T15:00:23;4.77;;;3.50;;
30519;SDS011;17300;50.374;8.006;2023-02-07T15:02:55;3.73;;;3.33;;
30519;SDS011;17300;50.374;8.006;2023-02-07T15:05:27;3.03;;;2.83;;
30519;SDS011;17300;50.374;8.006;2023-02-07T15:08:04;3.67;;;3.37;;
30519;SDS011;17300;50.374;8.006;2023-02-07T15:10:35;3.67;;;3.37;;
30519;SDS011;17300;50.374;8.006;2023-02-07T15:13:06;5.10;;;3.73;;
30519;SDS011;17300;50.374;8.006;2023-02-07T15:15:46;4.10;;;3.70;;
30519;SDS011;17300;50.374;8.006;2023-02-07T15:18:16;3.60;;;2.87;;
30519;SDS011;17300;50.374;8.006;2023-02-07T15:20:47;3.73;;;3.33;;
30519;SDS011;17300;50.374;8.006;2023-02-07T15:23:17;3.77;;;3.10;;
30519;SDS011;17300;50.374;8.006;2023-02-07T15:25:44;4.33;;;3.93;;
30519;SDS011;17300;50.374;8.006;2023-02-07T15:28:19;4.00;;;3.60;;